Time;durP1;ratioP1;P1;durP2;ratioP2;P2;SDS_P1;SDS_P2;PMS_P1;PMS_P2;Temp;Humidity;BMP_temperature;BMP_pressure;BME280_temperature;BME280_humidity;BME280_pressure;Samples;Min_cycle;Max_cycle;Signal;HPM_P1;HPM_P2
2023/05/27 00:02:12;;;;;;;11.53;3.67;;;;;;;13.99;51.91;99773.66;4976681;28;41071;-75
2023/05/27 00:04:39;;;;;;;8.27;3.77;;;;;;;13.99;51.44;99778.97;4976377;28;43221;-77
2023/05/27 00:07:07;;;;;;;10.80;3.57;;;;;;;13.93;51.41;99776.69;4958362;28;41895;-76
2023/05/27 00:09:35;;;;;;;6.97;3.00;;;;;;;13.92;50.96;99787.44;4992632;28;42206;-77
2023/05/27 00:12:02;;;;;;;8.90;3.30;;;;;;;13.82;51.10;99783.63;4959285;28;41137;-75
2023/05/27 00:14:30;;;;;;;7.70;3.13;;;;;;;13.82;51.23;99784.50;4975543;28;40693;-77
2023/05/27 00:16:59;;;;;;;6.83;2.83;;;;;;;13.77;51.92;99794.56;4975294;28;43764;-76
2023/05/27 00:19:26;;;;;;;8.73;3.10;;;;;;;13.73;51.85;99789.50;4975470;28;41475;-78
2023/05/27 00:21:54;;;;;;;7.63;3.07;;;;;;;13.68;52.11;99792.47;4975316;28;40982;-77
2023/05/27 00:24:22;;;;;;;6.97;3.20;;;;;;;13.60;51.97;99786.72;4975311;28;41592;-75
2023/05/27 00:26:49;;;;;;;8.73;3.27;;;;;;;13.59;52.01;99787.69;4959089;28;43034;-78
2023/05/27 00:29:17;;;;;;;10.67;3.27;;;;;;;13.54;52.75;99787.09;4959083;28;42785;-77
2023/05/27 00:31:45;;;;;;;8.13;3.23;;;;;;;13.41;52.65;99770.16;4958950;28;39866;-77
2023/05/27 00:34:14;;;;;;;7.77;2.97;;;;;;;13.47;53.18;99780.44;4975403;28;41811;-77
2023/05/27 00:36:41;;;;;;;7.73;3.50;;;;;;;13.37;53.59;99776.59;4958634;28;41769;-75
2023/05/27 00:39:09;;;;;;;6.97;3.27;;;;;;;13.38;53.39;99776.50;4974216;28;43315;-76
2023/05/27 00:41:37;;;;;;;10.93;3.63;;;;;;;13.24;53.50;99764.00;4975213;28;40926;-78
2023/05/27 00:44:04;;;;;;;10.47;3.60;;;;;;;13.32;53.53;99784.88;4958960;28;41794;-77
2023/05/27 00:46:32;;;;;;;8.20;3.83;;;;;;;13.26;54.02;99780.75;4958964;28;41776;-77
2023/05/27 00:49:00;;;;;;;8.13;3.33;;;;;;;13.23;53.97;99778.25;4958714;28;42223;-78
2023/05/27 00:51:29;;;;;;;7.87;3.13;;;;;;;13.19;54.11;99776.75;4991829;28;42127;-78
2023/05/27 00:53:57;;;;;;;5.87;3.13;;;;;;;13.17;53.88;99775.13;4974739;28;41829;-76
2023/05/27 00:56:25;;;;;;;10.10;3.00;;;;;;;13.07;53.77;99766.78;4959672;28;41765;-76
2023/05/27 00:58:52;;;;;;;9.53;3.17;;;;;;;12.94;53.75;99753.34;4959470;28;41121;-75
2023/05/27 01:01:20;;;;;;;6.53;3.00;;;;;;;13.09;54.52;99777.34;4975979;28;40955;-76
2023/05/27 01:03:47;;;;;;;8.37;3.43;;;;;;;12.89;54.47;99746.56;4959526;28;40241;-76
2023/05/27 01:06:22;;;;;;;6.90;3.00;;;;;;;13.02;54.36;99774.16;4975870;28;42723;-76
2023/05/27 01:09:01;;;;;;;8.80;3.30;;;;;;;12.98;54.26;99772.66;4959392;28;41449;-78
2023/05/27 01:11:35;;;;;;;8.40;3.70;;;;;;;12.94;54.39;99769.31;4972946;28;40788;-76
2023/05/27 01:14:07;;;;;;;9.00;3.33;;;;;;;12.86;54.36;99755.56;4975506;28;41645;-77
2023/05/27 01:16:39;;;;;;;6.37;2.90;;;;;;;12.93;54.30;99766.72;4959731;28;43234;-78
2023/05/27 01:19:14;;;;;;;7.77;3.17;;;;;;;12.90;54.28;99766.91;4959464;28;41057;-76
2023/05/27 01:21:50;;;;;;;5.53;3.00;;;;;;;12.88;54.11;99764.31;4959077;28;39822;-78
2023/05/27 01:24:19;;;;;;;9.00;4.10;;;;;;;12.87;54.03;99764.41;4971394;28;41746;-76
2023/05/27 01:26:48;;;;;;;10.77;4.00;;;;;;;12.78;54.17;99744.53;4957816;28;41773;-75
2023/05/27 01:29:17;;;;;;;9.97;3.43;;;;;;;12.78;54.29;99749.84;4958006;28;41481;-76
2023/05/27 01:31:50;;;;;;;11.13;3.73;;;;;;;12.72;54.17;99739.59;4974329;28;39730;-77
2023/05/27 01:34:25;;;;;;;6.93;3.10;;;;;;;12.75;54.37;99754.47;4988829;28;41934;-77
2023/05/27 01:36:58;;;;;;;4.80;2.93;;;;;;;12.73;54.02;99756.38;4958140;28;42855;-78
2023/05/27 01:39:28;;;;;;;8.87;3.57;;;;;;;12.70;53.95;99751.25;4958500;28;42322;-76
2023/05/27 01:41:57;;;;;;;7.53;3.03;;;;;;;12.57;54.33;99733.34;4973938;28;40955;-77
2023/05/27 01:44:25;;;;;;;7.63;3.00;;;;;;;12.65;54.08;99753.28;4957905;28;41780;-76
2023/05/27 01:46:54;;;;;;;6.50;3.27;;;;;;;12.64;53.73;99752.44;4973769;28;42314;-76
2023/05/27 01:49:22;;;;;;;7.60;2.80;;;;;;;12.62;54.02;99743.69;4957240;28;41188;-75
2023/05/27 01:51:53;;;;;;;8.37;3.23;;;;;;;12.60;54.02;99748.25;4957506;28;39940;-76
2023/05/27 01:54:21;;;;;;;8.10;3.00;;;;;;;12.58;53.75;99744.81;4958032;28;41725;-75
2023/05/27 01:56:51;;;;;;;8.77;3.03;;;;;;;12.54;54.05;99746.78;4974791;28;42708;-75
2023/05/27 01:59:19;;;;;;;5.67;3.10;;;;;;;12.53;53.72;99750.38;4958831;28;42347;-76
2023/05/27 02:02:03;;;;;;;5.90;3.07;;;;;;;12.49;54.11;99743.50;4974799;28;40642;-78
2023/05/27 02:04:37;;;;;;;10.30;3.27;;;;;;;12.47;53.99;99745.44;4958751;28;41837;-77
2023/05/27 02:07:05;;;;;;;7.67;2.93;;;;;;;12.48;53.69;99743.63;4974745;28;43626;-77
2023/05/27 02:09:33;;;;;;;7.67;3.37;;;;;;;12.46;53.79;99740.19;4975040;28;42320;-75
2023/05/27 02:12:01;;;;;;;7.17;3.20;;;;;;;12.43;54.18;99735.91;4974712;28;40940;-76
2023/05/27 02:14:30;;;;;;;11.63;4.10;;;;;;;12.39;54.33;99731.69;4958599;28;40741;-76
2023/05/27 02:16:58;;;;;;;7.00;2.77;;;;;;;12.38;54.03;99735.28;4974459;28;42561;-74
2023/05/27 02:19:29;;;;;;;7.37;2.83;;;;;;;12.35;53.96;99734.63;4958868;28;41562;-77
2023/05/27 02:21:57;;;;;;;9.80;3.40;;;;;;;12.33;54.08;99726.75;4958246;28;41001;-75
2023/05/27 02:24:24;;;;;;;8.57;2.93;;;;;;;12.22;53.82;99718.53;4991105;28;42647;-77
2023/05/27 02:26:51;;;;;;;6.67;2.40;;;;;;;12.28;53.83;99733.25;4973317;28;42711;-76
2023/05/27 02:29:20;;;;;;;7.40;2.87;;;;;;;12.25;53.77;99728.94;4957310;28;41504;-75
2023/05/27 02:31:50;;;;;;;9.40;2.80;;;;;;;12.21;53.98;99728.28;4957486;28;40041;-75
2023/05/27 02:34:17;;;;;;;6.60;2.80;;;;;;;12.15;54.38;99717.13;4957465;28;42469;-76
2023/05/27 02:36:45;;;;;;;6.77;2.50;;;;;;;12.16;54.24;99724.16;4973238;28;42783;-75
2023/05/27 02:39:13;;;;;;;5.60;3.00;;;;;;;12.11;54.30;99721.78;4973616;28;42401;-76
2023/05/27 02:41:41;;;;;;;4.67;2.57;;;;;;;12.09;53.86;99728.09;4973541;28;41671;-76
2023/05/27 02:44:09;;;;;;;8.80;2.70;;;;;;;12.05;54.19;99727.41;4973480;28;41682;-77
2023/05/27 02:46:38;;;;;;;7.63;3.37;;;;;;;12.02;54.64;99729.34;4957101;28;41743;-76
2023/05/27 02:49:07;;;;;;;8.10;3.17;;;;;;;12.00;54.89;99725.91;4970717;28;43133;-77
2023/05/27 02:51:35;;;;;;;6.83;2.63;;;;;;;11.97;54.70;99728.78;4956737;28;41709;-77
2023/05/27 02:54:02;;;;;;;8.03;2.93;;;;;;;11.93;55.28;99728.06;4957174;28;40632;-76
2023/05/27 02:56:30;;;;;;;7.47;3.03;;;;;;;11.92;54.88;99725.50;4958193;28;41839;-77
2023/05/27 02:58:57;;;;;;;6.83;2.60;;;;;;;11.90;55.07;99724.72;4957804;28;42364;-76
2023/05/27 03:01:25;;;;;;;6.87;2.80;;;;;;;11.75;55.14;99703.38;4992792;28;41999;-77
2023/05/27 03:03:55;;;;;;;8.63;3.17;;;;;;;11.84;55.37;99723.25;4977647;28;40624;-77
2023/05/27 03:06:23;;;;;;;6.50;3.10;;;;;;;11.82;55.17;99715.38;4977262;28;42257;-75
2023/05/27 03:08:50;;;;;;;5.47;2.77;;;;;;;11.78;55.46;99710.31;4977302;28;42240;-74
2023/05/27 03:11:18;;;;;;;7.67;3.33;;;;;;;11.83;55.21;99726.84;4977921;28;40620;-75
2023/05/27 03:13:45;;;;;;;9.50;3.20;;;;;;;11.82;55.59;99723.34;4961582;28;40674;-76
2023/05/27 03:16:13;;;;;;;9.53;3.00;;;;;;;11.79;55.71;99726.16;4995191;28;42977;-76
2023/05/27 03:18:41;;;;;;;9.57;3.10;;;;;;;11.79;55.94;99726.16;4977324;28;43506;-74
2023/05/27 03:21:10;;;;;;;7.83;2.80;;;;;;;11.80;55.72;99729.66;4977577;28;41897;-76
2023/05/27 03:23:38;;;;;;;7.40;3.20;;;;;;;11.68;55.54;99704.63;4992342;28;41675;-75
2023/05/27 03:26:05;;;;;;;9.80;3.60;;;;;;;11.80;56.03;99727.00;4976360;28;42752;-77
2023/05/27 03:28:33;;;;;;;8.77;4.47;;;;;;;11.80;55.53;99727.00;4960027;28;41162;-76
2023/05/27 03:31:03;;;;;;;7.83;2.93;;;;;;;11.80;55.82;99733.19;4976465;28;41015;-77
2023/05/27 03:33:41;;;;;;;9.80;3.23;;;;;;;11.78;55.72;99735.06;4959943;28;41870;-76
2023/05/27 03:36:10;;;;;;;6.70;3.00;;;;;;;11.79;55.97;99731.47;4975895;28;43698;-77
2023/05/27 03:38:38;;;;;;;10.30;3.63;;;;;;;11.73;55.57;99712.34;4975925;28;42278;-77
2023/05/27 03:41:06;;;;;;;7.23;3.17;;;;;;;11.80;55.69;99737.63;4992474;28;41013;-75
2023/05/27 03:43:33;;;;;;;8.87;2.90;;;;;;;11.79;55.74;99734.13;4959593;28;42115;-78
2023/05/27 03:46:02;;;;;;;6.00;2.90;;;;;;;11.79;56.31;99726.16;4975881;28;43459;-77
2023/05/27 03:48:30;;;;;;;5.90;2.60;;;;;;;11.81;55.61;99729.59;4959564;28;41374;-75
2023/05/27 03:50:57;;;;;;;7.77;2.70;;;;;;;11.71;55.72;99707.09;4958985;28;42044;-75
2023/05/27 03:53:26;;;;;;;7.27;2.80;;;;;;;11.84;55.66;99731.22;4959584;28;41638;-75
2023/05/27 03:55:54;;;;;;;7.17;2.77;;;;;;;11.86;55.58;99735.53;4960654;28;42770;-75
2023/05/27 03:58:21;;;;;;;6.63;2.80;;;;;;;11.89;55.70;99734.47;4960443;28;41316;-77
2023/05/27 04:00:48;;;;;;;8.80;3.23;;;;;;;11.90;55.99;99736.19;4960863;28;39847;-76
2023/05/27 04:03:16;;;;;;;8.70;3.07;;;;;;;11.94;56.02;99739.53;4960539;28;40566;-74
2023/05/27 04:05:44;;;;;;;8.63;4.07;;;;;;;12.00;55.57;99733.88;4960202;28;41709;-76
2023/05/27 04:08:13;;;;;;;6.63;3.30;;;;;;;11.99;55.84;99729.53;4960423;28;41112;-77
2023/05/27 04:10:43;;;;;;;7.50;3.00;;;;;;;12.07;55.64;99729.97;4960410;28;41318;-75
2023/05/27 04:13:11;;;;;;;7.37;2.93;;;;;;;12.17;55.27;99741.81;4960194;28;41782;-76
2023/05/27 04:15:39;;;;;;;8.87;3.10;;;;;;;12.20;55.15;99737.19;4976443;28;42633;-74
2023/05/27 04:18:06;;;;;;;9.73;2.87;;;;;;;12.28;55.32;99738.56;4976384;28;43344;-78
2023/05/27 04:20:40;;;;;;;8.87;3.47;;;;;;;12.34;55.91;99741.75;4960196;28;39879;-76
2023/05/27 04:23:07;;;;;;;7.17;2.70;;;;;;;12.36;55.47;99736.34;4959637;28;40747;-76
2023/05/27 04:25:35;;;;;;;8.57;3.37;;;;;;;12.45;55.92;99746.44;4974542;28;42645;-78
2023/05/27 04:28:09;;;;;;;9.10;3.43;;;;;;;12.50;55.72;99739.91;4958994;28;42094;-76
2023/05/27 04:30:41;;;;;;;8.83;2.73;;;;;;;12.58;55.49;99743.03;4972473;28;40928;-76
2023/05/27 04:33:16;;;;;;;8.73;4.07;;;;;;;12.67;55.21;99746.09;4959274;28;40970;-78
2023/05/27 04:35:44;;;;;;;10.23;3.20;;;;;;;12.73;55.48;99745.75;4958793;28;42265;-76
2023/05/27 04:38:15;;;;;;;8.77;2.80;;;;;;;12.75;54.97;99743.84;4975040;28;42380;-78
2023/05/27 04:40:54;;;;;;;8.53;2.70;;;;;;;12.72;55.42;99722.78;4959069;28;41602;-77
2023/05/27 04:43:34;;;;;;;6.97;3.40;;;;;;;12.92;54.84;99752.56;4974609;28;42501;-79
2023/05/27 04:46:02;;;;;;;9.10;3.60;;;;;;;12.92;55.01;99730.44;4975005;28;42973;-77
2023/05/27 04:48:30;;;;;;;6.50;3.17;;;;;;;13.07;55.08;99745.50;4958799;28;42706;-75
2023/05/27 04:50:57;;;;;;;9.83;3.70;;;;;;;13.13;54.55;99757.56;4992037;28;40963;-78
2023/05/27 04:53:25;;;;;;;7.40;3.30;;;;;;;13.20;54.64;99749.19;4958298;28;40990;-76
2023/05/27 04:55:53;;;;;;;8.37;3.40;;;;;;;13.26;54.44;99745.31;4976003;28;42607;-77
2023/05/27 04:58:21;;;;;;;7.63;3.00;;;;;;;13.23;54.36;99735.69;4959538;28;41331;-77
2023/05/27 05:00:53;;;;;;;6.63;3.27;;;;;;;13.44;54.34;99754.00;4975923;28;42246;-78
2023/05/27 05:03:21;;;;;;;7.60;3.33;;;;;;;13.54;54.32;99753.34;4959403;28;40732;-77
2023/05/27 05:05:51;;;;;;;10.13;3.27;;;;;;;13.48;54.14;99736.88;4959168;28;43244;-77
2023/05/27 05:08:19;;;;;;;9.80;3.13;;;;;;;13.59;53.94;99742.44;4959356;28;42355;-78
2023/05/27 05:10:48;;;;;;;6.33;2.97;;;;;;;13.78;53.95;99759.00;4959508;28;39949;-78
2023/05/27 05:13:16;;;;;;;7.50;3.03;;;;;;;13.89;53.47;99759.19;4959381;28;41261;-76
2023/05/27 05:15:44;;;;;;;8.13;3.40;;;;;;;13.93;53.38;99747.41;4975482;28;42802;-76
2023/05/27 05:18:14;;;;;;;9.07;3.37;;;;;;;14.09;53.66;99757.97;4975478;28;42408;-77
2023/05/27 05:20:41;;;;;;;8.00;2.93;;;;;;;14.21;52.94;99761.69;4959133;28;40917;-76
2023/05/27 05:23:14;;;;;;;8.07;3.20;;;;;;;14.23;53.58;99738.44;4958285;28;40902;-79
2023/05/27 05:25:42;;;;;;;6.63;3.00;;;;;;;14.44;53.25;99763.75;4957588;28;44198;-79
2023/05/27 05:28:11;;;;;;;9.27;3.50;;;;;;;14.54;52.83;99764.88;4958336;28;41663;-77
2023/05/27 05:30:40;;;;;;;10.83;3.20;;;;;;;14.67;52.57;99760.47;4958167;28;39980;-81
2023/05/27 05:33:08;;;;;;;7.17;3.07;;;;;;;14.79;52.48;99764.16;4957613;28;41899;-76
2023/05/27 05:35:37;;;;;;;7.17;3.57;;;;;;;14.89;51.96;99772.41;4974425;28;42835;-81
2023/05/27 05:38:27;;;;;;;7.90;2.70;;;;;;;14.95;50.97;99774.69;4958375;28;42263;-79
2023/05/27 05:40:55;;;;;;;7.27;3.20;;;;;;;15.04;51.69;99774.06;4974313;28;41705;-79
2023/05/27 05:43:23;;;;;;;5.93;2.47;;;;;;;15.11;51.63;99754.00;4957762;28;41032;-79
2023/05/27 05:45:52;;;;;;;9.43;3.47;;;;;;;15.19;51.59;99759.72;4974451;28;42778;-79
2023/05/27 05:48:21;;;;;;;8.60;3.30;;;;;;;15.46;51.45;99770.31;4974034;28;42355;-77
2023/05/27 05:50:51;;;;;;;6.53;3.47;;;;;;;15.59;50.88;99773.03;4957767;28;39944;-79
2023/05/27 05:53:18;;;;;;;10.03;3.30;;;;;;;15.61;50.23;99747.94;4957984;28;41068;-80
2023/05/27 05:55:46;;;;;;;9.60;3.13;;;;;;;15.77;49.67;99764.63;4975424;28;43818;-77
2023/05/27 05:58:14;;;;;;;8.97;3.03;;;;;;;15.96;49.45;99774.00;4975426;28;42413;-78
2023/05/27 06:00:43;;;;;;;10.47;3.63;;;;;;;16.06;49.13;99780.44;4959564;28;40073;-76
2023/05/27 06:03:34;;;;;;;8.47;3.57;;;;;;;16.21;49.33;99774.00;4975414;28;42645;-78
2023/05/27 06:06:05;;;;;;;7.30;3.33;;;;;;;16.36;49.06;99774.72;4974792;28;43779;-76
2023/05/27 06:08:38;;;;;;;11.33;3.83;;;;;;;16.49;48.66;99784.44;4974737;28;43511;-75
2023/05/27 06:11:12;;;;;;;11.80;3.63;;;;;;;16.60;48.14;99791.66;4970386;28;41963;-74
2023/05/27 06:13:43;;;;;;;11.47;3.80;;;;;;;16.67;47.39;99787.63;4958024;28;43343;-78
2023/05/27 06:16:13;;;;;;;9.17;3.37;;;;;;;16.80;48.24;99785.78;4974602;28;42730;-77
2023/05/27 06:18:45;;;;;;;6.80;3.10;;;;;;;16.97;47.65;99784.50;4974762;28;43000;-73
2023/05/27 06:21:14;;;;;;;6.70;2.93;;;;;;;17.14;47.10;99797.50;4967757;28;40978;-73
2023/05/27 06:24:05;;;;;;;12.23;4.03;;;;;;;17.19;47.06;99792.66;4971173;28;42667;-73
2023/05/27 06:26:37;;;;;;;9.63;3.30;;;;;;;17.38;46.37;99807.34;4953519;28;42727;-74
2023/05/27 06:29:05;;;;;;;8.90;3.13;;;;;;;17.57;46.00;99807.66;4956964;28;42922;-74
2023/05/27 06:31:33;;;;;;;9.73;3.53;;;;;;;17.77;46.65;99790.09;4973032;28;40679;-74
2023/05/27 06:34:01;;;;;;;12.03;3.23;;;;;;;17.93;45.28;99801.31;4973177;28;41563;-74
2023/05/27 06:36:30;;;;;;;8.23;3.57;;;;;;;18.00;45.29;99802.56;4975358;28;43509;-73
2023/05/27 06:38:59;;;;;;;8.97;3.10;;;;;;;18.18;45.44;99795.75;4960077;28;42225;-74
2023/05/27 06:41:27;;;;;;;9.57;3.30;;;;;;;18.34;45.36;99789.16;4960089;28;39869;-75
2023/05/27 06:44:30;;;;;;;8.40;3.37;;;;;;;18.52;44.85;99793.94;4944495;28;41590;-73
2023/05/27 06:47:02;;;;;;;8.17;3.10;;;;;;;18.69;44.70;99787.22;4959339;28;41599;-73
2023/05/27 06:49:31;;;;;;;9.37;3.70;;;;;;;18.90;44.88;99788.16;4976222;28;41249;-73
2023/05/27 06:52:05;;;;;;;7.53;3.97;;;;;;;19.11;44.24;99796.28;4973442;28;41035;-74
2023/05/27 06:54:38;;;;;;;9.13;3.63;;;;;;;19.38;44.06;99804.72;4960112;28;40887;-75
2023/05/27 06:57:28;;;;;;;8.67;3.20;;;;;;;19.59;42.62;99812.00;4965762;28;42811;-75
2023/05/27 07:00:03;;;;;;;10.47;3.60;;;;;;;19.69;42.05;99816.44;4961221;28;41258;-74
2023/05/27 07:02:35;;;;;;;8.33;3.53;;;;;;;19.84;41.18;99822.34;4977254;28;40176;-76
2023/05/27 07:05:03;;;;;;;9.43;3.90;;;;;;;19.88;41.33;99801.44;4976936;28;41824;-75
2023/05/27 07:07:32;;;;;;;10.60;3.73;;;;;;;20.09;41.58;99804.97;4976666;28;43261;-75
2023/05/27 07:10:00;;;;;;;7.43;3.10;;;;;;;20.25;41.66;99816.09;4976797;28;42294;-76
2023/05/27 07:12:57;;;;;;;5.07;3.20;;;;;;;20.53;41.54;99808.31;4959072;28;39966;-77
2023/05/27 07:15:36;;;;;;;8.70;3.30;;;;;;;20.61;40.09;99805.81;4974694;28;41107;-75
2023/05/27 07:18:03;;;;;;;7.37;3.20;;;;;;;20.81;39.70;99821.03;4976126;28;41773;-75
2023/05/27 07:20:31;;;;;;;7.37;2.90;;;;;;;20.82;38.71;99820.03;4952824;28;43626;-75
2023/05/27 07:23:01;;;;;;;9.77;3.10;;;;;;;21.24;38.93;99828.81;4984729;28;42002;-75
2023/05/27 07:25:29;;;;;;;9.17;3.43;;;;;;;21.79;39.17;99835.34;4978780;28;41707;-76
2023/05/27 07:27:57;;;;;;;9.27;3.50;;;;;;;22.38;37.51;99826.16;4989787;28;42796;-76
2023/05/27 07:30:25;;;;;;;8.53;3.90;;;;;;;23.19;35.22;99845.25;4978329;28;43017;-76
2023/05/27 07:32:58;;;;;;;9.70;3.07;;;;;;;23.43;34.96;99845.53;4971319;28;39786;-76
2023/05/27 07:35:26;;;;;;;6.83;3.10;;;;;;;23.97;33.58;99852.66;4959949;28;41530;-75
2023/05/27 07:37:53;;;;;;;8.30;3.10;;;;;;;24.49;32.54;99852.66;4984733;28;41889;-76
2023/05/27 07:40:23;;;;;;;7.53;3.20;;;;;;;24.79;31.85;99847.75;4978470;28;41970;-75
2023/05/27 07:42:51;;;;;;;10.07;3.47;;;;;;;24.90;32.12;99844.75;4988523;28;40376;-76
2023/05/27 07:45:19;;;;;;;8.27;3.53;;;;;;;24.80;32.07;99844.03;4962757;28;41829;-76
2023/05/27 07:47:47;;;;;;;9.13;3.80;;;;;;;24.67;32.57;99828.22;5004190;28;42790;-76
2023/05/27 07:50:14;;;;;;;10.50;3.50;;;;;;;24.74;32.26;99840.09;4961721;28;42669;-76
2023/05/27 07:52:53;;;;;;;10.57;3.17;;;;;;;25.52;31.59;99829.03;4986431;28;40873;-75
2023/05/27 07:55:28;;;;;;;9.67;3.70;;;;;;;26.62;29.31;99840.16;4971183;28;41035;-76
2023/05/27 07:57:56;;;;;;;7.07;3.20;;;;;;;27.81;28.95;99845.38;5006753;28;43589;-75
2023/05/27 08:00:30;;;;;;;7.17;3.30;;;;;;;28.73;27.14;99838.66;4962449;28;41180;-76
2023/05/27 08:02:57;;;;;;;6.77;2.83;;;;;;;29.20;26.22;99859.22;4987976;28;40976;-76
2023/05/27 08:05:45;;;;;;;8.13;3.43;;;;;;;29.14;26.46;99851.81;4926356;28;41871;-75
2023/05/27 08:08:22;;;;;;;6.87;3.57;;;;;;;29.16;26.80;99844.31;4974777;28;41729;-76
2023/05/27 08:11:09;;;;;;;7.27;3.17;;;;;;;29.30;26.46;99857.06;4983560;28;42403;-75
2023/05/27 08:13:49;;;;;;;11.37;3.50;;;;;;;29.86;26.03;99844.44;4998320;28;41051;-77
2023/05/27 08:16:30;;;;;;;7.23;3.43;;;;;;;31.01;24.69;99855.84;4962612;28;41735;-75
2023/05/27 08:19:17;;;;;;;8.07;3.80;;;;;;;31.60;24.12;99857.97;4968367;28;42080;-76
2023/05/27 08:21:56;;;;;;;11.07;4.23;;;;;;;32.43;23.18;99859.31;4971657;28;41641;-76
2023/05/27 08:24:42;;;;;;;6.93;3.60;;;;;;;32.75;22.94;99862.25;4961252;28;40741;-76
2023/05/27 08:30:24;;;;;;;7.60;3.57;;;;;;;32.49;23.59;99852.16;5184426;27;20583;-76
2023/05/27 08:33:06;;;;;;;7.70;3.50;;;;;;;32.59;22.81;99846.22;5147296;27;40032;-76
2023/05/27 08:35:55;;;;;;;7.80;3.60;;;;;;;33.12;23.07;99830.47;5170102;27;41874;-76
2023/05/27 08:44:17;;;;;;;9.82;3.67;;;;;;;34.93;21.85;99835.00;5154652;27;43414;-78
2023/05/27 08:46:49;;;;;;;10.60;3.65;;;;;;;34.37;22.19;99824.13;5149115;27;40118;-76
2023/05/27 08:49:18;;;;;;;7.32;3.53;;;;;;;33.84;21.95;99821.00;5135431;27;42496;-78
2023/05/27 08:51:46;;;;;;;7.03;3.67;;;;;;;33.18;22.71;99818.59;5127481;27;43250;-77
2023/05/27 09:15:11;;;;;;;7.07;3.17;;;;;;;30.08;25.25;99779.72;5162997;27;42449;-76
2023/05/27 09:17:42;;;;;;;8.60;3.27;;;;;;;30.26;25.82;99774.59;5133555;27;41842;-75
2023/05/27 09:20:10;;;;;;;11.03;3.93;;;;;;;30.16;24.75;99782.31;5150333;27;40732;-75
2023/05/27 09:22:39;;;;;;;6.03;3.07;;;;;;;30.09;25.38;99775.09;5150167;27;39573;-76
2023/05/27 09:25:08;;;;;;;8.40;3.13;;;;;;;29.99;25.42;99775.47;5152909;27;41615;-76
2023/05/27 09:27:36;;;;;;;6.80;3.07;;;;;;;30.07;25.51;99756.19;5172550;27;42676;-76
2023/05/27 09:30:22;;;;;;;7.13;3.00;;;;;;;30.74;24.94;99769.22;5148476;27;43325;-76
2023/05/27 09:32:50;;;;;;;8.90;3.80;;;;;;;31.44;23.95;99767.97;5163427;27;40037;-76
2023/05/27 09:35:18;;;;;;;8.70;3.27;;;;;;;31.72;23.14;99792.47;5168552;27;42648;-76
2023/05/27 09:37:46;;;;;;;7.00;3.50;;;;;;;31.92;22.48;99789.72;5131691;27;43068;-76
2023/05/27 09:40:15;;;;;;;10.13;4.00;;;;;;;31.97;23.16;99789.97;5127018;27;42172;-75
2023/05/27 09:42:44;;;;;;;6.77;3.50;;;;;;;32.34;23.34;99750.09;5154803;27;40011;-76
2023/05/27 09:45:13;;;;;;;7.97;3.30;;;;;;;33.81;23.70;99764.56;5154944;27;41889;-76
2023/05/27 09:47:48;;;;;;;7.87;3.67;;;;;;;34.96;21.40;99780.56;5135888;27;41790;-76
2023/05/27 09:50:17;;;;;;;7.37;3.53;;;;;;;36.15;21.15;99785.09;5135917;27;41210;-76
2023/05/27 09:52:46;;;;;;;9.35;3.70;;;;;;;36.69;18.51;99795.81;5136164;27;39033;-76
2023/05/27 09:55:16;;;;;;;6.88;3.67;;;;;;;37.18;18.08;99798.22;5136229;27;41741;-76
2023/05/27 09:57:45;;;;;;;6.10;3.10;;;;;;;37.04;18.88;99786.59;5136909;27;43031;-76
2023/05/27 10:00:17;;;;;;;7.00;3.50;;;;;;;36.17;18.67;99788.47;5137054;27;42056;-76
2023/05/27 10:02:48;;;;;;;6.13;3.20;;;;;;;35.28;21.17;99760.84;5136757;27;39973;-76
2023/05/27 10:05:19;;;;;;;9.70;3.63;;;;;;;34.57;20.83;99767.00;5136834;27;40698;-76
2023/05/27 10:07:47;;;;;;;7.63;3.73;;;;;;;33.93;21.53;99766.59;5152148;27;43666;-76
2023/05/27 10:10:17;;;;;;;7.17;3.63;;;;;;;33.56;20.52;99765.59;5136468;27;42242;-76
2023/05/27 10:12:47;;;;;;;7.80;3.57;;;;;;;33.36;22.90;99738.28;5119438;27;40459;-76
2023/05/27 10:15:23;;;;;;;5.57;3.30;;;;;;;33.82;22.33;99741.50;5119151;27;43065;-76
2023/05/27 10:17:55;;;;;;;6.60;3.07;;;;;;;34.06;19.78;99760.97;5133433;27;42528;-77
2023/05/27 10:20:34;;;;;;;7.80;3.63;;;;;;;34.34;19.88;99760.50;5152364;27;42395;-77
2023/05/27 10:23:13;;;;;;;9.20;3.90;;;;;;;34.62;20.57;99752.53;5151650;27;40167;-76
2023/05/27 10:25:42;;;;;;;11.30;3.83;;;;;;;34.80;21.54;99735.22;5153004;27;41856;-76
2023/05/27 10:28:10;;;;;;;6.77;3.37;;;;;;;34.85;19.89;99744.47;5118429;27;41473;-76
2023/05/27 10:30:47;;;;;;;8.00;3.57;;;;;;;34.77;20.29;99738.44;5153543;27;43035;-77
2023/05/27 10:33:17;;;;;;;7.20;3.40;;;;;;;34.32;20.50;99730.47;5150627;27;39858;-77
2023/05/27 10:35:50;;;;;;;6.13;3.47;;;;;;;34.10;21.45;99712.72;5117729;27;42067;-77
2023/05/27 10:38:19;;;;;;;6.53;2.90;;;;;;;34.23;22.46;99718.06;5154290;27;42294;-76
2023/05/27 10:40:48;;;;;;;6.87;3.70;;;;;;;33.99;20.14;99718.97;5134776;27;41290;-76
2023/05/27 10:43:17;;;;;;;8.47;3.70;;;;;;;33.51;21.76;99719.53;5153775;27;40241;-76
2023/05/27 10:45:44;;;;;;;6.77;3.73;;;;;;;33.14;21.75;99724.84;5153457;27;41836;-76
2023/05/27 10:48:33;;;;;;;6.23;3.30;;;;;;;32.74;21.15;99723.41;5135072;27;43178;-76
2023/05/27 10:51:01;;;;;;;6.13;3.20;;;;;;;32.48;24.13;99689.50;5147729;27;42307;-77
2023/05/27 10:53:31;;;;;;;6.87;3.40;;;;;;;32.32;22.80;99703.69;5132470;27;39074;-76
2023/05/27 10:56:00;;;;;;;6.83;3.43;;;;;;;32.22;21.35;99713.41;5099617;27;41804;-76
2023/05/27 10:58:29;;;;;;;6.93;3.73;;;;;;;32.23;21.84;99694.03;5153606;27;42866;-76
2023/05/27 11:00:58;;;;;;;5.80;3.20;;;;;;;32.14;20.07;99722.69;5134864;27;41838;-76
2023/05/27 11:03:28;;;;;;;7.23;3.37;;;;;;;32.19;20.78;99711.94;5135418;27;40611;-77
2023/05/27 11:06:04;;;;;;;5.37;3.07;;;;;;;32.32;21.81;99703.69;5117362;27;40722;-76
2023/05/27 11:08:34;;;;;;;6.20;3.37;;;;;;;32.42;21.99;99693.09;5148734;27;44153;-77
2023/05/27 11:11:03;;;;;;;6.87;3.60;;;;;;;32.29;22.64;99682.16;5101137;27;42370;-77
2023/05/27 11:13:32;;;;;;;7.70;3.63;;;;;;;32.12;21.31;99697.38;5117802;27;38762;-76
2023/05/27 11:16:00;;;;;;;8.77;3.03;;;;;;;32.03;22.25;99687.69;5153819;27;41882;-76
2023/05/27 11:18:38;;;;;;;6.07;3.33;;;;;;;32.11;22.61;99684.75;5114610;27;42896;-79
2023/05/27 11:21:06;;;;;;;5.93;3.20;;;;;;;31.92;21.01;99675.50;5114329;27;42136;-75
2023/05/27 11:23:40;;;;;;;6.90;3.77;;;;;;;31.92;23.41;99674.66;5114022;27;39042;-75
2023/05/27 11:26:15;;;;;;;7.60;3.20;;;;;;;31.96;22.46;99668.53;5095844;27;41468;-76
2023/05/27 11:28:47;;;;;;;6.30;3.53;;;;;;;31.86;23.10;99662.66;5119439;27;42828;-76
2023/05/27 11:31:16;;;;;;;5.50;3.17;;;;;;;31.82;23.13;99663.28;5132901;27;42326;-76
2023/05/27 11:33:46;;;;;;;5.53;3.47;;;;;;;31.70;23.53;99655.72;5119601;27;40055;-75
2023/05/27 11:36:16;;;;;;;7.13;3.80;;;;;;;31.92;26.19;99628.06;5116794;27;41728;-75
2023/05/27 11:38:49;;;;;;;7.50;3.53;;;;;;;32.26;26.21;99626.94;5133731;27;42687;-76
2023/05/27 11:41:17;;;;;;;10.77;3.90;;;;;;;32.19;21.62;99640.66;5151433;27;43095;-77
2023/05/27 11:43:50;;;;;;;8.07;3.40;;;;;;;32.36;24.19;99643.78;5133571;27;40042;-74
2023/05/27 11:46:18;;;;;;;8.73;3.63;;;;;;;32.69;22.74;99644.44;5116849;27;42229;-76
2023/05/27 11:48:48;;;;;;;6.77;3.50;;;;;;;33.46;23.67;99637.81;5132630;27;43664;-77
2023/05/27 11:51:16;;;;;;;7.60;3.70;;;;;;;34.41;23.49;99627.31;5152175;27;42101;-75
2023/05/27 11:53:46;;;;;;;7.63;3.40;;;;;;;35.92;21.11;99648.06;5133671;27;38808;-75
2023/05/27 11:56:15;;;;;;;5.10;3.30;;;;;;;37.29;20.43;99645.34;5135029;27;41087;-75
2023/05/27 11:58:42;;;;;;;7.03;3.43;;;;;;;38.61;18.57;99653.69;5134421;27;41588;-75
2023/05/27 12:01:10;;;;;;;7.72;3.22;;;;;;;39.26;17.46;99661.03;5153267;27;42214;-75
2023/05/27 12:03:38;;;;;;;5.22;3.22;;;;;;;40.10;17.96;99644.47;5152804;27;39968;-75
2023/05/27 12:06:07;;;;;;;6.13;3.60;;;;;;;41.30;17.62;99649.88;5153239;27;41719;-75
2023/05/27 12:08:35;;;;;;;6.20;3.42;;;;;;;41.99;15.33;99663.22;5115664;27;41886;-76
2023/05/27 12:11:03;;;;;;;7.30;3.33;;;;;;;42.32;14.93;99664.50;5151769;27;42516;-75
2023/05/27 12:13:31;;;;;;;6.63;3.75;;;;;;;42.67;15.10;99655.16;5132627;27;38361;-76
2023/05/27 12:15:59;;;;;;;6.25;3.33;;;;;;;43.25;14.84;99649.81;5152079;27;42351;-75
2023/05/27 12:18:27;;;;;;;8.18;3.45;;;;;;;43.99;13.91;99640.22;5133168;27;43371;-75